sensor_id;sensor_type;location;lat;lon;timestamp;temperature;humidity
60723;DHT22;46574;52.818;6.516;2022-11-11T00:00:35;11.50;99.90
60723;DHT22;46574;52.818;6.516;2022-11-11T00:03:01;11.50;99.90
60723;DHT22;46574;52.818;6.516;2022-11-11T00:05:27;11.50;99.90
60723;DHT22;46574;52.818;6.516;2022-11-11T00:07:55;11.50;99.90
60723;DHT22;46574;52.818;6.516;2022-11-11T00:10:30;11.50;99.90
60723;DHT22;46574;52.818;6.516;2022-11-11T00:13:00;11.60;99.90
60723;DHT22;46574;52.818;6.516;2022-11-11T00:15:26;11.60;99.90
60723;DHT22;46574;52.818;6.516;2022-11-11T00:17:52;11.60;99.90
60723;DHT22;46574;52.818;6.516;2022-11-11T00:20:36;11.60;99.90
60723;DHT22;46574;52.818;6.516;2022-11-11T00:23:22;11.60;99.90
60723;DHT22;46574;52.818;6.516;2022-11-11T00:26:08;11.60;99.90
60723;DHT22;46574;52.818;6.516;2022-11-11T00:28:33;11.60;99.90
60723;DHT22;46574;52.818;6.516;2022-11-11T00:31:11;11.60;99.90
60723;DHT22;46574;52.818;6.516;2022-11-11T00:33:37;11.60;99.90
60723;DHT22;46574;52.818;6.516;2022-11-11T00:36:04;11.60;99.90
60723;DHT22;46574;52.818;6.516;2022-11-11T00:38:29;11.60;99.90
60723;DHT22;46574;52.818;6.516;2022-11-11T00:41:12;11.60;99.90
60723;DHT22;46574;52.818;6.516;2022-11-11T00:43:38;11.60;99.90
60723;DHT22;46574;52.818;6.516;2022-11-11T00:46:04;11.60;99.90
60723;DHT22;46574;52.818;6.516;2022-11-11T00:48:48;11.60;99.90
60723;DHT22;46574;52.818;6.516;2022-11-11T00:51:32;11.60;99.90
60723;DHT22;46574;52.818;6.516;2022-11-11T00:53:58;11.60;99.90
60723;DHT22;46574;52.818;6.516;2022-11-11T00:56:24;11.60;99.90
60723;DHT22;46574;52.818;6.516;2022-11-11T00:58:50;11.60;99.90
60723;DHT22;46574;52.818;6.516;2022-11-11T01:01:16;11.60;99.90
60723;DHT22;46574;52.818;6.516;2022-11-11T01:03:42;11.60;99.90
60723;DHT22;46574;52.818;6.516;2022-11-11T01:06:10;11.70;99.90
60723;DHT22;46574;52.818;6.516;2022-11-11T01:08:36;11.60;99.90
60723;DHT22;46574;52.818;6.516;2022-11-11T01:11:02;11.60;99.90
60723;DHT22;46574;52.818;6.516;2022-11-11T01:13:30;11.50;99.90
60723;DHT22;46574;52.818;6.516;2022-11-11T01:16:01;11.50;99.90
60723;DHT22;46574;52.818;6.516;2022-11-11T01:18:27;11.50;99.90
60723;DHT22;46574;52.818;6.516;2022-11-11T01:21:17;11.50;99.90
60723;DHT22;46574;52.818;6.516;2022-11-11T01:23:44;11.50;99.90
60723;DHT22;46574;52.818;6.516;2022-11-11T01:26:26;11.40;99.90
60723;DHT22;46574;52.818;6.516;2022-11-11T01:28:55;11.40;99.90
60723;DHT22;46574;52.818;6.516;2022-11-11T01:31:23;11.40;99.90
60723;DHT22;46574;52.818;6.516;2022-11-11T01:33:49;11.40;99.90
60723;DHT22;46574;52.818;6.516;2022-11-11T01:36:23;11.30;99.90
60723;DHT22;46574;52.818;6.516;2022-11-11T01:38:55;11.30;99.90
60723;DHT22;46574;52.818;6.516;2022-11-11T01:41:27;11.30;99.90
60723;DHT22;46574;52.818;6.516;2022-11-11T01:51:50;11.10;99.90
60723;DHT22;46574;52.818;6.516;2022-11-11T01:54:40;11.00;99.90
60723;DHT22;46574;52.818;6.516;2022-11-11T01:57:32;11.00;99.90
60723;DHT22;46574;52.818;6.516;2022-11-11T02:00:11;11.00;99.90
60723;DHT22;46574;52.818;6.516;2022-11-11T02:05:17;10.90;99.90
60723;DHT22;46574;52.818;6.516;2022-11-11T02:08:08;10.90;99.90
60723;DHT22;46574;52.818;6.516;2022-11-11T02:10:36;10.90;99.90
60723;DHT22;46574;52.818;6.516;2022-11-11T02:13:02;10.90;99.90
60723;DHT22;46574;52.818;6.516;2022-11-11T02:15:47;10.80;99.90
60723;DHT22;46574;52.818;6.516;2022-11-11T02:18:13;10.80;99.90
60723;DHT22;46574;52.818;6.516;2022-11-11T02:20:42;10.80;99.90
60723;DHT22;46574;52.818;6.516;2022-11-11T02:25:48;10.80;99.90
60723;DHT22;46574;52.818;6.516;2022-11-11T02:28:15;10.80;99.90
60723;DHT22;46574;52.818;6.516;2022-11-11T02:30:42;10.70;99.90
60723;DHT22;46574;52.818;6.516;2022-11-11T02:33:07;10.80;99.90
60723;DHT22;46574;52.818;6.516;2022-11-11T02:35:35;10.70;99.90
60723;DHT22;46574;52.818;6.516;2022-11-11T02:38:03;10.80;99.90
60723;DHT22;46574;52.818;6.516;2022-11-11T02:40:40;10.70;99.90
60723;DHT22;46574;52.818;6.516;2022-11-11T02:43:30;10.70;99.90
60723;DHT22;46574;52.818;6.516;2022-11-11T02:45:56;10.70;99.90
60723;DHT22;46574;52.818;6.516;2022-11-11T02:48:22;10.80;99.90
60723;DHT22;46574;52.818;6.516;2022-11-11T02:50:49;10.70;99.90
60723;DHT22;46574;52.818;6.516;2022-11-11T02:53:15;10.70;99.90
60723;DHT22;46574;52.818;6.516;2022-11-11T02:55:41;10.80;99.90
60723;DHT22;46574;52.818;6.516;2022-11-11T02:58:07;10.70;99.90
60723;DHT22;46574;52.818;6.516;2022-11-11T03:00:33;10.70;99.90
60723;DHT22;46574;52.818;6.516;2022-11-11T03:02:58;10.70;99.90
60723;DHT22;46574;52.818;6.516;2022-11-11T03:05:24;10.70;99.90
60723;DHT22;46574;52.818;6.516;2022-11-11T03:07:49;10.70;99.90
60723;DHT22;46574;52.818;6.516;2022-11-11T03:10:15;10.60;99.90
60723;DHT22;46574;52.818;6.516;2022-11-11T03:12:41;10.60;99.90
60723;DHT22;46574;52.818;6.516;2022-11-11T03:15:07;10.60;99.90
60723;DHT22;46574;52.818;6.516;2022-11-11T03:17:33;10.60;99.90
60723;DHT22;46574;52.818;6.516;2022-11-11T03:20:13;10.60;99.90
60723;DHT22;46574;52.818;6.516;2022-11-11T03:23:09;10.60;99.90
60723;DHT22;46574;52.818;6.516;2022-11-11T03:25:42;10.60;99.90
60723;DHT22;46574;52.818;6.516;2022-11-11T03:28:10;10.50;99.90
60723;DHT22;46574;52.818;6.516;2022-11-11T03:30:37;10.50;99.90
60723;DHT22;46574;52.818;6.516;2022-11-11T03:33:03;10.50;99.90
60723;DHT22;46574;52.818;6.516;2022-11-11T03:35:29;10.50;99.90
60723;DHT22;46574;52.818;6.516;2022-11-11T03:37:55;10.50;99.90
60723;DHT22;46574;52.818;6.516;2022-11-11T03:40:41;10.60;99.90
60723;DHT22;46574;52.818;6.516;2022-11-11T03:43:06;10.50;99.90
60723;DHT22;46574;52.818;6.516;2022-11-11T03:45:32;10.50;99.90
60723;DHT22;46574;52.818;6.516;2022-11-11T03:47:58;10.60;99.90
60723;DHT22;46574;52.818;6.516;2022-11-11T03:50:24;10.60;99.90
60723;DHT22;46574;52.818;6.516;2022-11-11T03:52:49;10.60;99.90
60723;DHT22;46574;52.818;6.516;2022-11-11T03:55:15;10.60;99.90
60723;DHT22;46574;52.818;6.516;2022-11-11T03:57:43;10.60;99.90
60723;DHT22;46574;52.818;6.516;2022-11-11T04:00:11;10.60;99.90
60723;DHT22;46574;52.818;6.516;2022-11-11T04:02:38;10.60;99.90
60723;DHT22;46574;52.818;6.516;2022-11-11T04:05:22;10.70;99.90
60723;DHT22;46574;52.818;6.516;2022-11-11T04:08:14;10.70;99.90
60723;DHT22;46574;52.818;6.516;2022-11-11T04:11:00;10.70;99.90
60723;DHT22;46574;52.818;6.516;2022-11-11T04:13:27;10.80;99.90
60723;DHT22;46574;52.818;6.516;2022-11-11T04:16:12;10.80;99.90
60723;DHT22;46574;52.818;6.516;2022-11-11T04:18:38;10.70;99.90
60723;DHT22;46574;52.818;6.516;2022-11-11T04:21:23;10.80;99.90
60723;DHT22;46574;52.818;6.516;2022-11-11T04:24:09;10.80;99.90
60723;DHT22;46574;52.818;6.516;2022-11-11T04:26:55;10.90;99.90
60723;DHT22;46574;52.818;6.516;2022-11-11T04:29:22;10.90;99.90
60723;DHT22;46574;52.818;6.516;2022-11-11T04:32:02;10.90;99.90
60723;DHT22;46574;52.818;6.516;2022-11-11T04:34:54;10.90;99.90
60723;DHT22;46574;52.818;6.516;2022-11-11T04:37:21;10.90;99.90
60723;DHT22;46574;52.818;6.516;2022-11-11T04:39:48;11.00;99.90
60723;DHT22;46574;52.818;6.516;2022-11-11T04:42:33;11.00;99.90
60723;DHT22;46574;52.818;6.516;2022-11-11T04:44:59;11.00;99.90
60723;DHT22;46574;52.818;6.516;2022-11-11T04:48:03;11.00;99.90
60723;DHT22;46574;52.818;6.516;2022-11-11T04:50:37;11.00;99.90
60723;DHT22;46574;52.818;6.516;2022-11-11T04:53:08;11.10;99.90
60723;DHT22;46574;52.818;6.516;2022-11-11T04:55:35;11.00;99.90
60723;DHT22;46574;52.818;6.516;2022-11-11T04:58:21;11.10;99.90
60723;DHT22;46574;52.818;6.516;2022-11-11T05:00:47;11.00;99.90
60723;DHT22;46574;52.818;6.516;2022-11-11T05:03:14;11.10;99.90
60723;DHT22;46574;52.818;6.516;2022-11-11T05:05:47;11.10;99.90
60723;DHT22;46574;52.818;6.516;2022-11-11T05:08:33;11.10;99.90
60723;DHT22;46574;52.818;6.516;2022-11-11T05:11:18;11.20;99.90
60723;DHT22;46574;52.818;6.516;2022-11-11T05:13:44;11.10;99.90
60723;DHT22;46574;52.818;6.516;2022-11-11T05:16:30;11.20;99.90
60723;DHT22;46574;52.818;6.516;2022-11-11T05:19:15;11.20;99.90
60723;DHT22;46574;52.818;6.516;2022-11-11T05:24:37;11.20;99.90
60723;DHT22;46574;52.818;6.516;2022-11-11T05:27:22;11.20;99.90
60723;DHT22;46574;52.818;6.516;2022-11-11T05:29:48;11.20;99.90
60723;DHT22;46574;52.818;6.516;2022-11-11T05:32:20;11.20;99.90
60723;DHT22;46574;52.818;6.516;2022-11-11T05:34:46;11.20;99.90
60723;DHT22;46574;52.818;6.516;2022-11-11T05:37:12;11.20;99.90
60723;DHT22;46574;52.818;6.516;2022-11-11T05:39:38;11.20;99.90
60723;DHT22;46574;52.818;6.516;2022-11-11T05:42:04;11.20;99.90
60723;DHT22;46574;52.818;6.516;2022-11-11T05:44:30;11.20;99.90
60723;DHT22;46574;52.818;6.516;2022-11-11T05:46:56;11.10;99.90
60723;DHT22;46574;52.818;6.516;2022-11-11T05:49:21;11.20;99.90
60723;DHT22;46574;52.818;6.516;2022-11-11T05:51:48;11.20;99.90
60723;DHT22;46574;52.818;6.516;2022-11-11T05:54:14;11.10;99.90
60723;DHT22;46574;52.818;6.516;2022-11-11T05:56:39;11.20;99.90
60723;DHT22;46574;52.818;6.516;2022-11-11T05:59:06;11.20;99.90
60723;DHT22;46574;52.818;6.516;2022-11-11T06:01:32;11.20;99.90
60723;DHT22;46574;52.818;6.516;2022-11-11T06:03:58;11.20;99.90
60723;DHT22;46574;52.818;6.516;2022-11-11T06:06:24;11.20;99.90
60723;DHT22;46574;52.818;6.516;2022-11-11T06:08:50;11.20;99.90
60723;DHT22;46574;52.818;6.516;2022-11-11T06:11:15;11.20;99.90
60723;DHT22;46574;52.818;6.516;2022-11-11T06:13:41;11.20;99.90
60723;DHT22;46574;52.818;6.516;2022-11-11T06:16:07;11.20;99.90
60723;DHT22;46574;52.818;6.516;2022-11-11T06:18:33;11.20;99.90
60723;DHT22;46574;52.818;6.516;2022-11-11T06:20:59;11.20;99.90
60723;DHT22;46574;52.818;6.516;2022-11-11T06:23:26;11.20;99.90
60723;DHT22;46574;52.818;6.516;2022-11-11T06:25:52;11.20;99.90
60723;DHT22;46574;52.818;6.516;2022-11-11T06:28:40;11.20;99.90
60723;DHT22;46574;52.818;6.516;2022-11-11T06:31:07;11.20;99.90
60723;DHT22;46574;52.818;6.516;2022-11-11T06:33:34;11.20;99.90
60723;DHT22;46574;52.818;6.516;2022-11-11T06:36:00;11.20;99.90
60723;DHT22;46574;52.818;6.516;2022-11-11T06:38:26;11.20;99.90
60723;DHT22;46574;52.818;6.516;2022-11-11T06:40:51;11.20;99.90
60723;DHT22;46574;52.818;6.516;2022-11-11T06:43:17;11.20;99.90
60723;DHT22;46574;52.818;6.516;2022-11-11T06:45:43;11.20;99.90
60723;DHT22;46574;52.818;6.516;2022-11-11T06:48:09;11.20;99.90
60723;DHT22;46574;52.818;6.516;2022-11-11T06:50:35;11.20;99.90
60723;DHT22;46574;52.818;6.516;2022-11-11T06:53:08;11.20;99.90
60723;DHT22;46574;52.818;6.516;2022-11-11T06:55:35;11.20;99.90
60723;DHT22;46574;52.818;6.516;2022-11-11T06:58:05;11.20;99.90
60723;DHT22;46574;52.818;6.516;2022-11-11T07:00:31;11.30;99.90
60723;DHT22;46574;52.818;6.516;2022-11-11T07:02:57;11.20;99.90
60723;DHT22;46574;52.818;6.516;2022-11-11T07:05:23;11.30;99.90
60723;DHT22;46574;52.818;6.516;2022-11-11T07:07:48;11.20;99.90
60723;DHT22;46574;52.818;6.516;2022-11-11T07:10:14;11.20;99.90
60723;DHT22;46574;52.818;6.516;2022-11-11T07:12:42;11.30;99.90
60723;DHT22;46574;52.818;6.516;2022-11-11T07:15:08;11.30;99.90
60723;DHT22;46574;52.818;6.516;2022-11-11T07:17:34;11.20;99.90
60723;DHT22;46574;52.818;6.516;2022-11-11T07:19:59;11.30;99.90
60723;DHT22;46574;52.818;6.516;2022-11-11T07:22:25;11.30;99.90
60723;DHT22;46574;52.818;6.516;2022-11-11T07:24:51;11.30;99.90
60723;DHT22;46574;52.818;6.516;2022-11-11T07:27:16;11.30;99.90
60723;DHT22;46574;52.818;6.516;2022-11-11T07:29:42;11.30;99.90
60723;DHT22;46574;52.818;6.516;2022-11-11T07:32:08;11.30;99.90
60723;DHT22;46574;52.818;6.516;2022-11-11T07:34:33;11.30;99.90
60723;DHT22;46574;52.818;6.516;2022-11-11T07:36:59;11.30;99.90
60723;DHT22;46574;52.818;6.516;2022-11-11T07:39:24;11.40;99.90
60723;DHT22;46574;52.818;6.516;2022-11-11T07:41:50;11.40;99.90
60723;DHT22;46574;52.818;6.516;2022-11-11T07:44:16;11.40;99.90
60723;DHT22;46574;52.818;6.516;2022-11-11T07:46:41;11.40;99.90
60723;DHT22;46574;52.818;6.516;2022-11-11T07:49:07;11.40;99.90
60723;DHT22;46574;52.818;6.516;2022-11-11T07:51:32;11.40;99.90
60723;DHT22;46574;52.818;6.516;2022-11-11T07:53:58;11.40;99.90
60723;DHT22;46574;52.818;6.516;2022-11-11T07:56:24;11.40;99.90
60723;DHT22;46574;52.818;6.516;2022-11-11T07:58:49;11.40;99.90
60723;DHT22;46574;52.818;6.516;2022-11-11T08:01:15;11.40;99.90
60723;DHT22;46574;52.818;6.516;2022-11-11T08:03:41;11.40;99.90
60723;DHT22;46574;52.818;6.516;2022-11-11T08:06:21;11.40;99.90
60723;DHT22;46574;52.818;6.516;2022-11-11T08:08:47;11.50;99.90
60723;DHT22;46574;52.818;6.516;2022-11-11T08:11:14;11.50;99.90
60723;DHT22;46574;52.818;6.516;2022-11-11T08:13:40;11.50;99.90
60723;DHT22;46574;52.818;6.516;2022-11-11T08:16:10;11.60;99.90
60723;DHT22;46574;52.818;6.516;2022-11-11T08:18:37;11.60;99.90
60723;DHT22;46574;52.818;6.516;2022-11-11T08:21:04;11.60;99.90
60723;DHT22;46574;52.818;6.516;2022-11-11T08:23:30;11.60;99.90
60723;DHT22;46574;52.818;6.516;2022-11-11T08:26:05;11.60;99.90
60723;DHT22;46574;52.818;6.516;2022-11-11T08:28:32;11.70;99.90
60723;DHT22;46574;52.818;6.516;2022-11-11T08:31:00;11.70;99.90
60723;DHT22;46574;52.818;6.516;2022-11-11T08:33:26;11.70;99.90
60723;DHT22;46574;52.818;6.516;2022-11-11T08:35:52;11.70;99.90
60723;DHT22;46574;52.818;6.516;2022-11-11T08:38:19;11.80;99.90
60723;DHT22;46574;52.818;6.516;2022-11-11T08:40:45;11.80;99.90
60723;DHT22;46574;52.818;6.516;2022-11-11T08:43:11;11.80;99.90
60723;DHT22;46574;52.818;6.516;2022-11-11T08:45:37;11.80;99.90
60723;DHT22;46574;52.818;6.516;2022-11-11T08:48:03;11.90;99.90
60723;DHT22;46574;52.818;6.516;2022-11-11T08:50:29;11.90;99.90
60723;DHT22;46574;52.818;6.516;2022-11-11T08:52:56;11.90;99.90
60723;DHT22;46574;52.818;6.516;2022-11-11T08:55:21;11.90;99.90
60723;DHT22;46574;52.818;6.516;2022-11-11T08:57:47;11.90;99.90
60723;DHT22;46574;52.818;6.516;2022-11-11T09:00:13;11.90;99.90
60723;DHT22;46574;52.818;6.516;2022-11-11T09:02:39;12.00;99.90
60723;DHT22;46574;52.818;6.516;2022-11-11T09:05:05;12.00;99.90
60723;DHT22;46574;52.818;6.516;2022-11-11T09:07:31;12.00;99.90
60723;DHT22;46574;52.818;6.516;2022-11-11T09:09:57;12.00;99.90
60723;DHT22;46574;52.818;6.516;2022-11-11T09:12:22;12.00;99.90
60723;DHT22;46574;52.818;6.516;2022-11-11T09:14:48;12.10;99.90
60723;DHT22;46574;52.818;6.516;2022-11-11T09:17:15;12.10;99.90
60723;DHT22;46574;52.818;6.516;2022-11-11T09:19:40;12.10;99.90
60723;DHT22;46574;52.818;6.516;2022-11-11T09:22:06;12.20;99.90
60723;DHT22;46574;52.818;6.516;2022-11-11T09:24:32;12.20;99.90
60723;DHT22;46574;52.818;6.516;2022-11-11T09:26:57;12.20;99.90
60723;DHT22;46574;52.818;6.516;2022-11-11T09:29:23;12.20;99.90
60723;DHT22;46574;52.818;6.516;2022-11-11T09:31:49;12.20;99.90
60723;DHT22;46574;52.818;6.516;2022-11-11T09:34:15;12.20;99.90
60723;DHT22;46574;52.818;6.516;2022-11-11T09:36:41;12.20;99.90
60723;DHT22;46574;52.818;6.516;2022-11-11T09:39:07;12.20;99.90
60723;DHT22;46574;52.818;6.516;2022-11-11T09:47:26;12.30;99.90
60723;DHT22;46574;52.818;6.516;2022-11-11T09:49:57;12.30;99.90
60723;DHT22;46574;52.818;6.516;2022-11-11T09:53:32;12.30;99.90
60723;DHT22;46574;52.818;6.516;2022-11-11T09:55:35;12.40;99.90
60723;DHT22;46574;52.818;6.516;2022-11-11T09:58:18;12.40;99.90
60723;DHT22;46574;52.818;6.516;2022-11-11T10:00:54;12.50;99.90
60723;DHT22;46574;52.818;6.516;2022-11-11T10:03:22;12.60;99.90
60723;DHT22;46574;52.818;6.516;2022-11-11T10:08:29;12.70;99.90
60723;DHT22;46574;52.818;6.516;2022-11-11T10:10:58;12.70;99.90
60723;DHT22;46574;52.818;6.516;2022-11-11T10:13:35;12.70;99.90
60723;DHT22;46574;52.818;6.516;2022-11-11T10:16:06;12.70;99.90
60723;DHT22;46574;52.818;6.516;2022-11-11T10:21:43;12.80;99.90
60723;DHT22;46574;52.818;6.516;2022-11-11T10:24:17;12.80;99.90
60723;DHT22;46574;52.818;6.516;2022-11-11T10:26:47;12.80;99.90
60723;DHT22;46574;52.818;6.516;2022-11-11T10:29:18;12.80;99.90
60723;DHT22;46574;52.818;6.516;2022-11-11T10:32:04;12.80;99.90
60723;DHT22;46574;52.818;6.516;2022-11-11T10:34:33;12.80;99.90
60723;DHT22;46574;52.818;6.516;2022-11-11T10:37:00;12.90;99.90
60723;DHT22;46574;52.818;6.516;2022-11-11T10:42:29;12.90;99.90
60723;DHT22;46574;52.818;6.516;2022-11-11T10:44:59;12.80;99.90
60723;DHT22;46574;52.818;6.516;2022-11-11T10:47:49;12.80;99.90
60723;DHT22;46574;52.818;6.516;2022-11-11T10:50:20;12.80;99.90
60723;DHT22;46574;52.818;6.516;2022-11-11T10:52:58;12.80;99.90
60723;DHT22;46574;52.818;6.516;2022-11-11T10:55:53;12.80;99.90
60723;DHT22;46574;52.818;6.516;2022-11-11T10:58:59;12.80;99.90
60723;DHT22;46574;52.818;6.516;2022-11-11T11:01:24;12.70;99.90
60723;DHT22;46574;52.818;6.516;2022-11-11T11:03:58;12.80;99.90
60723;DHT22;46574;52.818;6.516;2022-11-11T11:06:34;12.70;99.90
60723;DHT22;46574;52.818;6.516;2022-11-11T11:11:51;12.80;99.90
60723;DHT22;46574;52.818;6.516;2022-11-11T11:14:31;12.80;99.90
60723;DHT22;46574;52.818;6.516;2022-11-11T11:17:00;12.80;99.90
60723;DHT22;46574;52.818;6.516;2022-11-11T11:19:31;12.70;99.90
60723;DHT22;46574;52.818;6.516;2022-11-11T11:22:02;12.80;99.90
60723;DHT22;46574;52.818;6.516;2022-11-11T11:24:29;12.80;99.90
60723;DHT22;46574;52.818;6.516;2022-11-11T11:27:01;12.80;99.90
60723;DHT22;46574;52.818;6.516;2022-11-11T11:29:35;12.80;99.90
60723;DHT22;46574;52.818;6.516;2022-11-11T11:32:17;12.90;99.90
60723;DHT22;46574;52.818;6.516;2022-11-11T11:34:54;12.90;99.90
60723;DHT22;46574;52.818;6.516;2022-11-11T11:37:23;12.90;99.90
60723;DHT22;46574;52.818;6.516;2022-11-11T11:40:03;12.90;99.90
60723;DHT22;46574;52.818;6.516;2022-11-11T11:42:39;13.00;99.90
60723;DHT22;46574;52.818;6.516;2022-11-11T11:45:34;12.90;99.90
60723;DHT22;46574;52.818;6.516;2022-11-11T11:50:45;13.00;99.90
60723;DHT22;46574;52.818;6.516;2022-11-11T11:56:38;13.00;99.90
60723;DHT22;46574;52.818;6.516;2022-11-11T11:59:16;12.90;99.90
60723;DHT22;46574;52.818;6.516;2022-11-11T12:13:37;13.10;99.90
60723;DHT22;46574;52.818;6.516;2022-11-11T12:16:23;13.20;99.90
60723;DHT22;46574;52.818;6.516;2022-11-11T12:21:57;13.30;99.90
60723;DHT22;46574;52.818;6.516;2022-11-11T12:32:33;13.40;99.90
60723;DHT22;46574;52.818;6.516;2022-11-11T12:35:16;13.40;99.90
60723;DHT22;46574;52.818;6.516;2022-11-11T12:43:02;13.60;99.90
60723;DHT22;46574;52.818;6.516;2022-11-11T12:54:02;13.50;99.90
60723;DHT22;46574;52.818;6.516;2022-11-11T13:15:25;13.40;99.90
60723;DHT22;46574;52.818;6.516;2022-11-11T13:17:51;13.40;99.90
60723;DHT22;46574;52.818;6.516;2022-11-11T13:23:24;13.40;99.90
60723;DHT22;46574;52.818;6.516;2022-11-11T13:25:55;13.30;99.90
60723;DHT22;46574;52.818;6.516;2022-11-11T13:28:36;13.40;99.90
60723;DHT22;46574;52.818;6.516;2022-11-11T13:31:22;13.40;99.90
60723;DHT22;46574;52.818;6.516;2022-11-11T13:33:55;13.40;99.90
60723;DHT22;46574;52.818;6.516;2022-11-11T13:36:26;13.40;99.90
60723;DHT22;46574;52.818;6.516;2022-11-11T13:38:57;13.30;99.90
60723;DHT22;46574;52.818;6.516;2022-11-11T13:41:28;13.40;99.90
60723;DHT22;46574;52.818;6.516;2022-11-11T13:43:57;13.40;99.90
60723;DHT22;46574;52.818;6.516;2022-11-11T13:49:02;13.40;99.90
60723;DHT22;46574;52.818;6.516;2022-11-11T13:54:01;13.40;99.90
60723;DHT22;46574;52.818;6.516;2022-11-11T13:56:35;13.40;99.90
60723;DHT22;46574;52.818;6.516;2022-11-11T13:59:02;13.30;99.90
60723;DHT22;46574;52.818;6.516;2022-11-11T14:01:36;13.30;99.90
60723;DHT22;46574;52.818;6.516;2022-11-11T14:04:07;13.40;99.90
60723;DHT22;46574;52.818;6.516;2022-11-11T14:08:59;13.40;99.90
60723;DHT22;46574;52.818;6.516;2022-11-11T14:21:51;13.30;99.90
60723;DHT22;46574;52.818;6.516;2022-11-11T14:24:40;13.30;99.90
60723;DHT22;46574;52.818;6.516;2022-11-11T14:29:37;13.20;99.90
60723;DHT22;46574;52.818;6.516;2022-11-11T14:35:16;13.20;99.90
60723;DHT22;46574;52.818;6.516;2022-11-11T14:40:29;13.10;99.90
60723;DHT22;46574;52.818;6.516;2022-11-11T14:42:57;13.00;99.90
60723;DHT22;46574;52.818;6.516;2022-11-11T14:47:54;12.90;99.90
60723;DHT22;46574;52.818;6.516;2022-11-11T14:53:00;12.90;99.90
60723;DHT22;46574;52.818;6.516;2022-11-11T14:55:29;12.80;99.90
60723;DHT22;46574;52.818;6.516;2022-11-11T15:01:02;12.80;99.90
60723;DHT22;46574;52.818;6.516;2022-11-11T15:03:50;12.70;99.90
60723;DHT22;46574;52.818;6.516;2022-11-11T15:06:33;12.60;99.90
60723;DHT22;46574;52.818;6.516;2022-11-11T15:14:32;12.40;99.90
60723;DHT22;46574;52.818;6.516;2022-11-11T15:17:33;12.30;99.90
60723;DHT22;46574;52.818;6.516;2022-11-11T15:28:48;12.00;99.90
60723;DHT22;46574;52.818;6.516;2022-11-11T15:31:36;11.90;99.90
60723;DHT22;46574;52.818;6.516;2022-11-11T15:34:12;11.80;99.90
60723;DHT22;46574;52.818;6.516;2022-11-11T15:39:20;11.60;99.90
60723;DHT22;46574;52.818;6.516;2022-11-11T15:41:49;11.50;99.90
60723;DHT22;46574;52.818;6.516;2022-11-11T15:46:48;11.40;99.90
60723;DHT22;46574;52.818;6.516;2022-11-11T15:51:59;11.30;99.90
60723;DHT22;46574;52.818;6.516;2022-11-11T15:54:25;11.20;99.90
60723;DHT22;46574;52.818;6.516;2022-11-11T15:56:51;11.20;99.90
60723;DHT22;46574;52.818;6.516;2022-11-11T15:59:23;11.10;99.90
60723;DHT22;46574;52.818;6.516;2022-11-11T16:01:50;11.10;99.90
60723;DHT22;46574;52.818;6.516;2022-11-11T16:04:21;11.00;99.90
60723;DHT22;46574;52.818;6.516;2022-11-11T16:06:48;11.00;99.90
60723;DHT22;46574;52.818;6.516;2022-11-11T16:09:23;11.00;99.90
60723;DHT22;46574;52.818;6.516;2022-11-11T16:11:50;10.90;99.90
60723;DHT22;46574;52.818;6.516;2022-11-11T16:14:44;10.80;99.90
60723;DHT22;46574;52.818;6.516;2022-11-11T16:17:12;10.80;99.90
60723;DHT22;46574;52.818;6.516;2022-11-11T16:19:40;10.70;99.90
60723;DHT22;46574;52.818;6.516;2022-11-11T16:22:30;10.60;99.90
60723;DHT22;46574;52.818;6.516;2022-11-11T16:24:57;10.60;99.90
60723;DHT22;46574;52.818;6.516;2022-11-11T16:27:28;10.50;99.90
60723;DHT22;46574;52.818;6.516;2022-11-11T16:29:55;10.50;99.90
60723;DHT22;46574;52.818;6.516;2022-11-11T16:32:38;10.40;99.90
60723;DHT22;46574;52.818;6.516;2022-11-11T16:37:54;10.50;99.90
60723;DHT22;46574;52.818;6.516;2022-11-11T16:43:15;10.40;99.90
60723;DHT22;46574;52.818;6.516;2022-11-11T16:46:04;10.40;99.90
60723;DHT22;46574;52.818;6.516;2022-11-11T16:51:11;10.30;99.90
60723;DHT22;46574;52.818;6.516;2022-11-11T16:53:42;10.40;99.90
60723;DHT22;46574;52.818;6.516;2022-11-11T16:56:26;10.40;99.90
60723;DHT22;46574;52.818;6.516;2022-11-11T16:59:03;10.50;99.90
60723;DHT22;46574;52.818;6.516;2022-11-11T17:01:40;10.50;99.90
60723;DHT22;46574;52.818;6.516;2022-11-11T17:04:06;10.60;99.90
60723;DHT22;46574;52.818;6.516;2022-11-11T17:06:55;10.60;99.90
60723;DHT22;46574;52.818;6.516;2022-11-11T17:09:28;10.60;99.90
60723;DHT22;46574;52.818;6.516;2022-11-11T17:11:55;10.60;99.90
60723;DHT22;46574;52.818;6.516;2022-11-11T17:14:21;10.60;99.90
60723;DHT22;46574;52.818;6.516;2022-11-11T17:16:47;10.70;99.90
60723;DHT22;46574;52.818;6.516;2022-11-11T17:19:13;10.60;99.90
60723;DHT22;46574;52.818;6.516;2022-11-11T17:21:38;10.60;99.90
60723;DHT22;46574;52.818;6.516;2022-11-11T17:24:04;10.60;99.90
60723;DHT22;46574;52.818;6.516;2022-11-11T17:26:30;10.50;99.90
60723;DHT22;46574;52.818;6.516;2022-11-11T17:28:56;10.50;99.90
60723;DHT22;46574;52.818;6.516;2022-11-11T17:31:22;10.50;99.90
60723;DHT22;46574;52.818;6.516;2022-11-11T17:33:49;10.40;99.90
60723;DHT22;46574;52.818;6.516;2022-11-11T17:36:14;10.40;99.90
60723;DHT22;46574;52.818;6.516;2022-11-11T17:38:40;10.40;99.90
60723;DHT22;46574;52.818;6.516;2022-11-11T17:41:06;10.30;99.90
60723;DHT22;46574;52.818;6.516;2022-11-11T17:43:31;10.30;99.90
60723;DHT22;46574;52.818;6.516;2022-11-11T17:46:01;10.30;99.90
60723;DHT22;46574;52.818;6.516;2022-11-11T17:48:27;10.20;99.90
60723;DHT22;46574;52.818;6.516;2022-11-11T17:50:53;10.20;99.90
60723;DHT22;46574;52.818;6.516;2022-11-11T17:53:18;10.20;99.90
60723;DHT22;46574;52.818;6.516;2022-11-11T17:55:44;10.10;99.90
60723;DHT22;46574;52.818;6.516;2022-11-11T17:58:10;10.10;99.90
60723;DHT22;46574;52.818;6.516;2022-11-11T18:00:38;10.10;99.90
60723;DHT22;46574;52.818;6.516;2022-11-11T18:03:05;10.10;99.90
60723;DHT22;46574;52.818;6.516;2022-11-11T18:05:35;10.10;99.90
60723;DHT22;46574;52.818;6.516;2022-11-11T18:08:01;10.10;99.90
60723;DHT22;46574;52.818;6.516;2022-11-11T18:10:28;10.00;99.90
60723;DHT22;46574;52.818;6.516;2022-11-11T18:12:55;10.00;99.90
60723;DHT22;46574;52.818;6.516;2022-11-11T18:15:21;10.00;99.90
60723;DHT22;46574;52.818;6.516;2022-11-11T18:17:46;9.90;99.90
60723;DHT22;46574;52.818;6.516;2022-11-11T18:20:12;9.90;99.90
60723;DHT22;46574;52.818;6.516;2022-11-11T18:22:38;9.80;99.90
60723;DHT22;46574;52.818;6.516;2022-11-11T18:25:04;9.70;99.90
60723;DHT22;46574;52.818;6.516;2022-11-11T18:27:29;9.80;99.90
60723;DHT22;46574;52.818;6.516;2022-11-11T18:29:55;9.80;99.90
60723;DHT22;46574;52.818;6.516;2022-11-11T18:32:20;9.80;99.90
60723;DHT22;46574;52.818;6.516;2022-11-11T18:34:46;9.70;99.90